Time;durP1;ratioP1;P1;durP2;ratioP2;P2;SDS_P1;SDS_P2;PMS_P1;PMS_P2;Temp;Humidity;BMP_temperature;BMP_pressure;BME280_temperature;BME280_humidity;BME280_pressure;Samples;Min_cycle;Max_cycle;Signal;HPM_P1;HPM_P2
2022/01/06 00:01:06;;;;;;;;;;;3.70;99.90;;;;;;5056479;28;19921;-74
2022/01/06 00:03:33;;;;;;;;;;;3.20;99.90;;;;;;5056508;28;19920;-74
2022/01/06 00:06:03;;;;;;;;;;;4.90;99.90;;;;;;5056436;28;19976;-74
2022/01/06 00:08:29;;;;;;;;;;;5.00;99.90;;;;;;5056703;28;19974;-74
2022/01/06 00:10:55;;;;;;;;;;;3.20;99.90;;;;;;5056593;28;19921;-75
2022/01/06 00:13:28;;;;;;;;;;;4.00;99.90;;;;;;5056430;28;19921;-74
2022/01/06 00:16:03;;;;;;;;;;;3.10;99.90;;;;;;5056379;28;19928;-76
2022/01/06 00:23:57;;;;;;;;;;;4.70;99.90;;;;;;5056277;28;19921;-74
2022/01/06 00:26:23;;;;;;;;;;;4.70;99.90;;;;;;5071613;28;19925;-74
2022/01/06 00:28:48;;;;;;;;;;;5.00;99.90;;;;;;5088049;28;19920;-74
2022/01/06 00:31:14;;;;;;;;;;;1.40;99.90;;;;;;5056042;28;19927;-75
2022/01/06 00:33:39;;;;;;;;;;;2.90;99.90;;;;;;5056073;28;19986;-74
2022/01/06 00:36:05;;;;;;;;;;;3.00;99.90;;;;;;5088664;28;19920;-74
2022/01/06 00:38:30;;;;;;;;;;;3.00;99.90;;;;;;5056030;28;19920;-76
2022/01/06 00:40:57;;;;;;;;;;;4.50;99.90;;;;;;5055812;28;19927;-75
2022/01/06 00:43:22;;;;;;;;;;;3.80;99.90;;;;;;5055776;28;19920;-74
2022/01/06 00:45:48;;;;;;;;;;;3.60;99.90;;;;;;5054799;28;19971;-75
2022/01/06 00:48:14;;;;;;;;;;;2.90;99.90;;;;;;5054761;28;20347;-74
2022/01/06 00:50:40;;;;;;;;;;;2.90;99.90;;;;;;5055846;28;19935;-74
2022/01/06 00:53:06;;;;;;;;;;;3.40;99.90;;;;;;5055647;28;19927;-74
2022/01/06 00:55:32;;;;;;;;;;;4.00;99.90;;;;;;5055599;28;20376;-76
2022/01/06 00:57:57;;;;;;;;;;;3.40;99.90;;;;;;5088369;28;20320;-74
2022/01/06 01:00:27;;;;;;;;;;;4.30;99.90;;;;;;5055457;28;20019;-74
2022/01/06 01:02:53;;;;;;;;;;;4.40;99.90;;;;;;5055653;28;19921;-76
2022/01/06 01:05:18;;;;;;;;;;;3.00;99.90;;;;;;5055572;28;19927;-74
2022/01/06 01:07:44;;;;;;;;;;;3.00;99.90;;;;;;5055503;28;19921;-75
2022/01/06 01:10:09;;;;;;;;;;;1.70;99.90;;;;;;5088132;28;19998;-74
2022/01/06 01:12:35;;;;;;;;;;;4.50;99.90;;;;;;5055353;28;19920;-74
2022/01/06 01:15:06;;;;;;;;;;;3.20;99.90;;;;;;5054329;28;20315;-74
2022/01/06 01:17:33;;;;;;;;;;;3.20;99.90;;;;;;5055090;28;20283;-74
2022/01/06 01:19:58;;;;;;;;;;;3.50;99.90;;;;;;5055263;28;19982;-74
2022/01/06 01:22:24;;;;;;;;;;;4.40;99.90;;;;;;5055182;28;20363;-74
2022/01/06 01:24:49;;;;;;;;;;;3.20;99.90;;;;;;5087744;28;19980;-75
2022/01/06 01:27:20;;;;;;;;;;;3.70;99.90;;;;;;5055056;28;19921;-74
2022/01/06 01:29:58;;;;;;;;;;;3.50;99.90;;;;;;5054824;28;19921;-75
2022/01/06 01:32:32;;;;;;;;;;;4.30;99.90;;;;;;5054976;28;19974;-73
2022/01/06 01:35:01;;;;;;;;;;;4.20;99.90;;;;;;5054915;28;19975;-74
2022/01/06 01:37:27;;;;;;;;;;;3.30;99.90;;;;;;5054876;28;19931;-74
2022/01/06 01:39:53;;;;;;;;;;;3.60;99.90;;;;;;5053632;28;19920;-74
2022/01/06 01:42:18;;;;;;;;;;;3.20;99.90;;;;;;5054721;28;19920;-74
2022/01/06 01:44:45;;;;;;;;;;;4.70;99.90;;;;;;5054585;28;19928;-75
2022/01/06 01:47:14;;;;;;;;;;;3.20;99.90;;;;;;5087466;28;20032;-74
2022/01/06 01:49:54;;;;;;;;;;;4.80;99.90;;;;;;5054716;28;20398;-74
2022/01/06 01:52:20;;;;;;;;;;;4.30;99.90;;;;;;5054415;28;20037;-74
2022/01/06 01:54:46;;;;;;;;;;;3.80;99.90;;;;;;5054447;28;19921;-75
2022/01/06 01:57:11;;;;;;;;;;;4.10;99.90;;;;;;5054392;28;20272;-74
2022/01/06 01:59:37;;;;;;;;;;;3.70;99.90;;;;;;5054369;28;20371;-74
2022/01/06 02:02:03;;;;;;;;;;;3.00;99.90;;;;;;5053992;28;19920;-74
2022/01/06 02:04:28;;;;;;;;;;;3.00;99.90;;;;;;5054354;28;19927;-74
2022/01/06 02:06:54;;;;;;;;;;;4.50;99.90;;;;;;5054365;28;19954;-74
2022/01/06 02:09:19;;;;;;;;;;;2.90;99.90;;;;;;5054249;28;19921;-74
2022/01/06 02:11:45;;;;;;;;;;;2.90;99.90;;;;;;5054147;28;19921;-75
2022/01/06 02:14:11;;;;;;;;;;;2.90;99.90;;;;;;5053991;28;19921;-74
2022/01/06 02:16:37;;;;;;;;;;;2.80;99.90;;;;;;5054231;28;20019;-73
2022/01/06 02:19:03;;;;;;;;;;;3.10;99.90;;;;;;5054171;28;19968;-74
2022/01/06 02:21:29;;;;;;;;;;;4.50;99.90;;;;;;5086887;28;20368;-74
2022/01/06 02:23:55;;;;;;;;;;;2.70;99.90;;;;;;5053986;28;19967;-75
2022/01/06 02:26:20;;;;;;;;;;;2.70;99.90;;;;;;5053037;28;19920;-74
2022/01/06 02:28:46;;;;;;;;;;;3.90;99.90;;;;;;5053813;28;20367;-74
2022/01/06 02:31:11;;;;;;;;;;;2.70;99.90;;;;;;5086809;28;19967;-74
2022/01/06 02:33:37;;;;;;;;;;;4.20;99.90;;;;;;5053826;28;19924;-74
2022/01/06 02:36:03;;;;;;;;;;;2.60;99.90;;;;;;5053874;28;20387;-75
2022/01/06 02:38:29;;;;;;;;;;;2.60;99.90;;;;;;5086504;28;20010;-75
2022/01/06 02:40:54;;;;;;;;;;;3.90;99.90;;;;;;5053749;28;19921;-76
2022/01/06 02:43:23;;;;;;;;;;;2.50;99.90;;;;;;5053637;28;19920;-74
2022/01/06 02:45:49;;;;;;;;;;;2.60;99.90;;;;;;5053836;28;19921;-74
2022/01/06 02:48:15;;;;;;;;;;;2.40;99.90;;;;;;5053785;28;19921;-75
2022/01/06 02:50:42;;;;;;;;;;;2.40;99.90;;;;;;5053406;28;19920;-75
2022/01/06 02:53:08;;;;;;;;;;;4.10;99.90;;;;;;5053459;28;20376;-76
2022/01/06 02:55:34;;;;;;;;;;;3.80;99.90;;;;;;5086209;28;20045;-78
2022/01/06 02:58:00;;;;;;;;;;;2.50;99.90;;;;;;5052251;28;20397;-77
2022/01/06 03:00:26;;;;;;;;;;;2.30;99.90;;;;;;5053300;28;19935;-76
2022/01/06 03:02:51;;;;;;;;;;;2.30;99.90;;;;;;5053667;28;19920;-77
2022/01/06 03:05:17;;;;;;;;;;;4.40;99.90;;;;;;5053347;28;19921;-75
2022/01/06 03:07:44;;;;;;;;;;;2.40;99.90;;;;;;5053564;28;19920;-76
2022/01/06 03:10:13;;;;;;;;;;;2.30;99.90;;;;;;5053399;28;19920;-75
2022/01/06 03:12:41;;;;;;;;;;;2.40;99.90;;;;;;5053361;28;19963;-76
2022/01/06 03:15:12;;;;;;;;;;;3.50;99.90;;;;;;5053596;28;19978;-77
2022/01/06 03:17:39;;;;;;;;;;;1.30;99.90;;;;;;5086123;28;19921;-75
2022/01/06 03:20:06;;;;;;;;;;;2.30;99.90;;;;;;5086116;28;20307;-76
2022/01/06 03:22:31;;;;;;;;;;;2.20;99.90;;;;;;5085979;28;19967;-75
2022/01/06 03:24:57;;;;;;;;;;;2.20;99.90;;;;;;5053275;28;20021;-77
2022/01/06 03:27:23;;;;;;;;;;;2.20;99.90;;;;;;5053241;28;19921;-75
2022/01/06 03:29:50;;;;;;;;;;;3.60;99.90;;;;;;5053451;28;19966;-75
2022/01/06 03:32:19;;;;;;;;;;;2.10;99.90;;;;;;5053363;28;19927;-75
2022/01/06 03:34:45;;;;;;;;;;;2.10;99.90;;;;;;5053297;28;19921;-76
2022/01/06 03:37:11;;;;;;;;;;;2.10;99.90;;;;;;5053266;28;19947;-76
2022/01/06 03:39:36;;;;;;;;;;;2.70;99.90;;;;;;5053109;28;19920;-75
2022/01/06 03:42:02;;;;;;;;;;;3.00;99.90;;;;;;5053050;28;20402;-76
2022/01/06 03:44:28;;;;;;;;;;;2.00;99.90;;;;;;5053006;28;20007;-75
2022/01/06 03:46:53;;;;;;;;;;;2.00;99.90;;;;;;5053201;28;19972;-77
2022/01/06 03:49:19;;;;;;;;;;;2.30;99.90;;;;;;5053237;28;19924;-75
2022/01/06 03:51:45;;;;;;;;;;;1.90;99.90;;;;;;5053150;28;20405;-77
2022/01/06 03:54:11;;;;;;;;;;;1.90;99.90;;;;;;5053012;28;19966;-75
2022/01/06 03:56:36;;;;;;;;;;;3.30;99.90;;;;;;5051752;28;19921;-75
2022/01/06 03:59:02;;;;;;;;;;;1.80;99.90;;;;;;5052837;28;19921;-75
2022/01/06 04:01:27;;;;;;;;;;;3.30;99.90;;;;;;5053000;28;19920;-75
2022/01/06 04:03:53;;;;;;;;;;;1.80;99.90;;;;;;5056013;28;19924;-76
2022/01/06 04:06:19;;;;;;;;;;;1.80;99.90;;;;;;5056681;28;20287;-75
2022/01/06 04:08:45;;;;;;;;;;;1.80;99.90;;;;;;5056563;28;20019;-75
2022/01/06 04:11:10;;;;;;;;;;;2.20;99.90;;;;;;5056430;28;20346;-75
2022/01/06 04:13:36;;;;;;;;;;;1.90;99.90;;;;;;5056211;28;20024;-75
2022/01/06 04:16:05;;;;;;;;;;;3.20;99.90;;;;;;5056593;28;19967;-75
2022/01/06 04:18:31;;;;;;;;;;;1.80;99.90;;;;;;5056544;28;19982;-75
2022/01/06 04:20:56;;;;;;;;;;;1.80;99.90;;;;;;5056346;28;19921;-76
2022/01/06 04:23:22;;;;;;;;;;;3.20;99.90;;;;;;5056350;28;20372;-74
2022/01/06 04:25:48;;;;;;;;;;;1.80;99.90;;;;;;5056181;28;19927;-76
2022/01/06 04:28:13;;;;;;;;;;;1.80;99.90;;;;;;5056115;28;20307;-75
2022/01/06 04:30:39;;;;;;;;;;;3.50;99.90;;;;;;5056037;28;20356;-75
2022/01/06 04:33:04;;;;;;;;;;;1.80;99.90;;;;;;5056180;28;19921;-77
2022/01/06 04:35:30;;;;;;;;;;;2.40;99.90;;;;;;5056133;28;20269;-76
2022/01/06 04:37:55;;;;;;;;;;;1.80;99.90;;;;;;5056077;28;20473;-77
2022/01/06 04:40:21;;;;;;;;;;;1.70;99.90;;;;;;5088481;28;19925;-75
2022/01/06 04:42:46;;;;;;;;;;;3.10;99.90;;;;;;5055940;28;20007;-76
2022/01/06 04:45:12;;;;;;;;;;;1.70;99.90;;;;;;5055837;28;20364;-75
2022/01/06 04:47:38;;;;;;;;;;;1.80;99.90;;;;;;5056002;28;19928;-75
2022/01/06 04:50:04;;;;;;;;;;;2.80;99.90;;;;;;5055876;28;19931;-74
2022/01/06 04:52:29;;;;;;;;;;;1.70;99.90;;;;;;5088345;28;19928;-76
2022/01/06 04:54:55;;;;;;;;;;;1.70;99.90;;;;;;5055622;28;19920;-75
2022/01/06 04:57:20;;;;;;;;;;;1.80;99.90;;;;;;5055518;28;20015;-76
2022/01/06 04:59:46;;;;;;;;;;;2.80;99.90;;;;;;5055552;28;19921;-76
2022/01/06 05:02:11;;;;;;;;;;;2.30;99.90;;;;;;5055281;28;19927;-74
2022/01/06 05:04:37;;;;;;;;;;;1.70;99.90;;;;;;5055586;28;20296;-75
2022/01/06 05:07:03;;;;;;;;;;;1.70;99.90;;;;;;5088003;28;19920;-75
2022/01/06 05:09:28;;;;;;;;;;;1.60;99.90;;;;;;5055399;28;19921;-75
2022/01/06 05:11:54;;;;;;;;;;;1.60;99.90;;;;;;5055272;28;19924;-74
2022/01/06 05:14:20;;;;;;;;;;;2.00;99.90;;;;;;5087588;28;19921;-75
2022/01/06 05:16:45;;;;;;;;;;;1.60;99.90;;;;;;5055118;28;19974;-75
2022/01/06 05:19:11;;;;;;;;;;;1.70;99.90;;;;;;5055348;28;19982;-75
2022/01/06 05:21:36;;;;;;;;;;;1.00;99.90;;;;;;5055192;28;19925;-76
2022/01/06 05:24:09;;;;;;;;;;;3.40;99.90;;;;;;5055346;28;19921;-77
2022/01/06 05:26:35;;;;;;;;;;;1.60;99.90;;;;;;5055013;28;19920;-76
2022/01/06 05:29:00;;;;;;;;;;;3.00;99.90;;;;;;5087770;28;20424;-77
2022/01/06 05:31:26;;;;;;;;;;;2.20;99.90;;;;;;5055125;28;19927;-75
2022/01/06 05:33:51;;;;;;;;;;;1.60;99.90;;;;;;5087433;28;20011;-75
2022/01/06 05:36:17;;;;;;;;;;;2.90;99.90;;;;;;5054710;28;19920;-75
2022/01/06 05:38:42;;;;;;;;;;;1.60;99.90;;;;;;5054901;28;19924;-76
2022/01/06 05:41:08;;;;;;;;;;;3.00;99.90;;;;;;5054741;28;19921;-75
2022/01/06 05:43:34;;;;;;;;;;;1.50;99.90;;;;;;5054786;28;20402;-75
2022/01/06 05:46:00;;;;;;;;;;;1.20;99.90;;;;;;5054589;28;19975;-77
2022/01/06 05:48:26;;;;;;;;;;;1.50;99.90;;;;;;5053646;28;19964;-76
2022/01/06 05:50:51;;;;;;;;;;;2.00;99.90;;;;;;5054717;28;19968;-77
2022/01/06 05:53:17;;;;;;;;;;;1.50;99.90;;;;;;5054528;28;19965;-75
2022/01/06 05:55:43;;;;;;;;;;;1.50;99.90;;;;;;5054546;28;19920;-77
2022/01/06 05:58:09;;;;;;;;;;;1.50;99.90;;;;;;5054530;28;20291;-74
2022/01/06 06:00:34;;;;;;;;;;;2.60;99.90;;;;;;5054238;28;19924;-76
2022/01/06 06:03:00;;;;;;;;;;;1.50;99.90;;;;;;5054301;28;19927;-77
2022/01/06 06:05:25;;;;;;;;;;;2.90;99.90;;;;;;5054459;28;19928;-75
2022/01/06 06:07:51;;;;;;;;;;;3.30;99.90;;;;;;5054371;28;19974;-75
2022/01/06 06:10:17;;;;;;;;;;;2.80;99.90;;;;;;5054265;28;19963;-74
2022/01/06 06:12:42;;;;;;;;;;;1.30;99.90;;;;;;5054230;28;20278;-76
2022/01/06 06:15:08;;;;;;;;;;;2.60;99.90;;;;;;5054144;28;20388;-75
2022/01/06 06:17:34;;;;;;;;;;;1.20;99.90;;;;;;5053973;28;19925;-75
2022/01/06 06:19:59;;;;;;;;;;;2.80;99.90;;;;;;5054300;28;19924;-76
2022/01/06 06:22:25;;;;;;;;;;;2.40;99.90;;;;;;5054150;28;19975;-74
2022/01/06 06:24:50;;;;;;;;;;;1.10;99.90;;;;;;5052604;28;19921;-75
2022/01/06 06:27:16;;;;;;;;;;;2.20;99.90;;;;;;5053986;28;20419;-75
2022/01/06 06:29:42;;;;;;;;;;;1.00;99.90;;;;;;5053946;28;19920;-76
2022/01/06 06:32:07;;;;;;;;;;;1.80;99.90;;;;;;5053724;28;19928;-74
2022/01/06 06:34:33;;;;;;;;;;;2.50;99.90;;;;;;5086068;28;20288;-75
2022/01/06 06:36:59;;;;;;;;;;;1.10;99.90;;;;;;5053940;28;19920;-75
2022/01/06 06:39:24;;;;;;;;;;;1.10;99.90;;;;;;5053859;28;19920;-76
2022/01/06 06:41:50;;;;;;;;;;;1.10;99.90;;;;;;5053762;28;19921;-75
2022/01/06 06:44:15;;;;;;;;;;;1.90;99.90;;;;;;5053776;28;19921;-74
2022/01/06 06:46:41;;;;;;;;;;;2.40;99.90;;;;;;5085910;28;19956;-75
2022/01/06 06:49:06;;;;;;;;;;;2.40;99.90;;;;;;5053564;28;19936;-74
2022/01/06 06:51:32;;;;;;;;;;;-0.70;99.90;;;;;;5053811;28;19921;-74
2022/01/06 06:53:58;;;;;;;;;;;2.90;99.90;;;;;;5053649;28;19927;-75
2022/01/06 06:56:23;;;;;;;;;;;1.00;99.90;;;;;;5053599;28;19924;-75
2022/01/06 06:58:49;;;;;;;;;;;1.00;99.90;;;;;;5052420;28;20290;-74
2022/01/06 07:01:14;;;;;;;;;;;2.20;99.90;;;;;;5052179;28;19921;-76
2022/01/06 07:03:40;;;;;;;;;;;2.10;99.90;;;;;;5053372;28;19921;-75
2022/01/06 07:06:05;;;;;;;;;;;1.00;99.90;;;;;;5053612;28;19921;-75
2022/01/06 07:08:31;;;;;;;;;;;1.00;99.90;;;;;;5053401;28;20404;-75
2022/01/06 07:10:56;;;;;;;;;;;1.00;99.90;;;;;;5053546;28;19928;-77
2022/01/06 07:13:22;;;;;;;;;;;2.30;99.90;;;;;;5085950;28;20325;-75
2022/01/06 07:15:48;;;;;;;;;;;1.00;99.90;;;;;;5053414;28;19928;-75
2022/01/06 07:18:13;;;;;;;;;;;1.00;99.90;;;;;;5053323;28;20023;-75
2022/01/06 07:20:39;;;;;;;;;;;3.00;99.90;;;;;;5053236;28;19928;-74
2022/01/06 07:23:04;;;;;;;;;;;2.60;99.90;;;;;;5086137;28;20277;-74
2022/01/06 07:25:30;;;;;;;;;;;1.10;99.90;;;;;;5053349;28;19975;-75
2022/01/06 07:27:56;;;;;;;;;;;2.80;99.90;;;;;;5052573;28;19927;-74
2022/01/06 07:30:21;;;;;;;;;;;1.10;99.90;;;;;;5053269;28;19943;-75
2022/01/06 07:32:48;;;;;;;;;;;2.00;99.90;;;;;;5053091;28;19968;-76
2022/01/06 07:35:14;;;;;;;;;;;2.30;99.90;;;;;;5052848;28;20397;-75
2022/01/06 07:37:40;;;;;;;;;;;1.90;99.90;;;;;;5054821;28;19938;-75
2022/01/06 07:40:06;;;;;;;;;;;1.00;99.90;;;;;;5057039;28;20011;-75
2022/01/06 07:42:32;;;;;;;;;;;1.00;99.90;;;;;;5090010;28;19920;-75
2022/01/06 07:45:00;;;;;;;;;;;1.10;99.90;;;;;;5057045;28;19943;-75
2022/01/06 07:47:25;;;;;;;;;;;2.90;99.90;;;;;;5056879;28;20428;-75
2022/01/06 07:49:51;;;;;;;;;;;1.60;99.90;;;;;;5055774;28;19921;-75
2022/01/06 07:52:17;;;;;;;;;;;1.80;99.90;;;;;;5056816;28;19927;-74
2022/01/06 07:54:43;;;;;;;;;;;0.70;99.90;;;;;;5056602;28;20402;-75
2022/01/06 07:57:09;;;;;;;;;;;3.00;99.90;;;;;;5056659;28;19921;-74
2022/01/06 07:59:34;;;;;;;;;;;2.50;99.90;;;;;;5056711;28;19978;-77
2022/01/06 08:02:00;;;;;;;;;;;0.80;99.90;;;;;;5056541;28;19990;-74
2022/01/06 08:04:25;;;;;;;;;;;0.80;99.90;;;;;;5056622;28;19947;-75
2022/01/06 08:06:51;;;;;;;;;;;0.90;99.90;;;;;;5056394;28;19968;-74
2022/01/06 08:09:16;;;;;;;;;;;1.30;99.90;;;;;;5056594;28;19974;-75
2022/01/06 08:11:42;;;;;;;;;;;0.90;99.90;;;;;;5056522;28;19975;-75
2022/01/06 08:14:08;;;;;;;;;;;0.90;99.90;;;;;;5056497;28;19928;-74
2022/01/06 08:16:33;;;;;;;;;;;0.90;99.90;;;;;;5056458;28;19978;-77
2022/01/06 08:18:59;;;;;;;;;;;-0.20;99.90;;;;;;5056274;28;20319;-77
2022/01/06 08:21:24;;;;;;;;;;;2.10;99.90;;;;;;5047458;28;20036;-74
2022/01/06 08:23:50;;;;;;;;;;;0.90;99.90;;;;;;5041519;28;19928;-75
2022/01/06 08:26:16;;;;;;;;;;;0.90;99.90;;;;;;5045095;28;19934;-75
2022/01/06 08:28:45;;;;;;;;;;;0.90;99.90;;;;;;5055091;28;19966;-75
2022/01/06 08:31:13;;;;;;;;;;;2.70;99.90;;;;;;5055161;28;20011;-75
2022/01/06 08:33:38;;;;;;;;;;;1.00;99.90;;;;;;5055938;28;20023;-74
2022/01/06 08:36:04;;;;;;;;;;;1.00;99.90;;;;;;5055917;28;20029;-74
2022/01/06 08:38:29;;;;;;;;;;;1.10;99.90;;;;;;5055772;28;19920;-76
2022/01/06 08:40:55;;;;;;;;;;;3.20;99.90;;;;;;5056002;28;20021;-75
2022/01/06 08:43:27;;;;;;;;;;;1.70;99.90;;;;;;5055996;28;19920;-74
2022/01/06 08:45:56;;;;;;;;;;;1.30;99.90;;;;;;5055044;28;19927;-76
2022/01/06 08:48:22;;;;;;;;;;;1.30;99.90;;;;;;5055061;28;19920;-75
2022/01/06 08:50:47;;;;;;;;;;;1.40;99.90;;;;;;5054497;28;20379;-77
2022/01/06 08:53:13;;;;;;;;;;;0.40;99.90;;;;;;5055707;28;19925;-75
2022/01/06 08:55:38;;;;;;;;;;;1.90;99.90;;;;;;5055561;28;19921;-74
2022/01/06 08:58:04;;;;;;;;;;;3.00;99.90;;;;;;5055415;28;19931;-75
2022/01/06 09:00:30;;;;;;;;;;;1.10;99.90;;;;;;5054379;28;19975;-74
2022/01/06 09:02:56;;;;;;;;;;;1.50;99.90;;;;;;5055185;28;19950;-74
2022/01/06 09:05:22;;;;;;;;;;;2.10;99.90;;;;;;5055287;28;19920;-74
2022/01/06 09:07:48;;;;;;;;;;;1.60;99.90;;;;;;5053909;28;20364;-75
2022/01/06 09:10:31;;;;;;;;;;;3.00;99.90;;;;;;5055303;28;20442;-75
2022/01/06 09:12:57;;;;;;;;;;;1.60;99.90;;;;;;5053914;28;19928;-75
2022/01/06 09:15:23;;;;;;;;;;;2.50;99.90;;;;;;5055125;28;19921;-76
2022/01/06 09:17:48;;;;;;;;;;;1.60;99.90;;;;;;5070500;28;20299;-76
2022/01/06 09:20:14;;;;;;;;;;;1.60;99.90;;;;;;5054971;28;19924;-75
2022/01/06 09:22:43;;;;;;;;;;;2.10;99.90;;;;;;5054811;28;20371;-74
2022/01/06 09:25:10;;;;;;;;;;;2.20;99.90;;;;;;5087688;28;19989;-73
2022/01/06 09:27:35;;;;;;;;;;;1.60;99.90;;;;;;5054940;28;19974;-76
2022/01/06 09:30:01;;;;;;;;;;;1.60;99.90;;;;;;5054936;28;19920;-74
2022/01/06 09:32:27;;;;;;;;;;;1.70;99.90;;;;;;5054894;28;19921;-75
2022/01/06 09:34:52;;;;;;;;;;;3.70;99.90;;;;;;5054854;28;19974;-73
2022/01/06 09:37:18;;;;;;;;;;;1.70;99.90;;;;;;5054961;28;19931;-74
2022/01/06 09:39:45;;;;;;;;;;;2.20;99.90;;;;;;5087569;28;19924;-75
2022/01/06 09:42:12;;;;;;;;;;;1.70;99.90;;;;;;5053860;28;19920;-75
2022/01/06 09:44:38;;;;;;;;;;;2.50;99.90;;;;;;5054584;28;20379;-74
2022/01/06 09:47:06;;;;;;;;;;;3.60;99.90;;;;;;5054665;28;19924;-74
2022/01/06 09:49:34;;;;;;;;;;;1.80;99.90;;;;;;5070286;28;19967;-73
2022/01/06 09:51:59;;;;;;;;;;;1.80;99.90;;;;;;5054480;28;19925;-74
2022/01/06 09:54:25;;;;;;;;;;;2.00;99.90;;;;;;5054603;28;20020;-75
2022/01/06 09:56:52;;;;;;;;;;;2.80;99.90;;;;;;5086587;28;20337;-74
2022/01/06 09:59:18;;;;;;;;;;;2.40;99.90;;;;;;5087045;28;19943;-74
2022/01/06 10:01:43;;;;;;;;;;;1.90;99.90;;;;;;5053581;28;19976;-73
2022/01/06 10:04:19;;;;;;;;;;;1.90;99.90;;;;;;5054292;28;19924;-75
2022/01/06 10:06:56;;;;;;;;;;;1.90;99.90;;;;;;5069657;28;19921;-75
2022/01/06 10:09:23;;;;;;;;;;;3.50;99.90;;;;;;5054381;28;19920;-74
2022/01/06 10:11:49;;;;;;;;;;;2.90;99.90;;;;;;5054166;28;19927;-73
2022/01/06 10:14:20;;;;;;;;;;;2.10;99.90;;;;;;5054068;28;19921;-74
2022/01/06 10:16:50;;;;;;;;;;;2.10;99.90;;;;;;5053163;28;19986;-76
2022/01/06 10:19:16;;;;;;;;;;;2.10;99.90;;;;;;5054016;28;20007;-74
2022/01/06 10:21:45;;;;;;;;;;;2.60;99.90;;;;;;5054325;28;20364;-73
2022/01/06 10:24:13;;;;;;;;;;;2.20;99.90;;;;;;5054136;28;19943;-76
2022/01/06 10:26:53;;;;;;;;;;;2.50;99.90;;;;;;5052866;28;19928;-76
2022/01/06 10:29:19;;;;;;;;;;;2.20;99.90;;;;;;5053925;28;19921;-76
2022/01/06 10:31:46;;;;;;;;;;;2.20;99.90;;;;;;5052931;28;20070;-72
2022/01/06 10:34:11;;;;;;;;;;;2.30;99.90;;;;;;5054016;28;19921;-73
2022/01/06 10:36:38;;;;;;;;;;;4.00;99.90;;;;;;5054014;28;19920;-73
2022/01/06 10:39:06;;;;;;;;;;;2.30;99.90;;;;;;5036390;28;19931;-73
2022/01/06 10:41:32;;;;;;;;;;;1.20;99.90;;;;;;5052728;28;20360;-73
2022/01/06 10:43:59;;;;;;;;;;;2.40;99.90;;;;;;5052716;28;19928;-73
2022/01/06 10:46:35;;;;;;;;;;;2.50;99.90;;;;;;5068990;28;19986;-75
2022/01/06 10:49:03;;;;;;;;;;;2.50;99.90;;;;;;5053847;28;19925;-75
2022/01/06 10:51:40;;;;;;;;;;;3.60;99.90;;;;;;5053739;28;20289;-73
2022/01/06 10:54:09;;;;;;;;;;;2.50;99.90;;;;;;5053306;28;19924;-76
2022/01/06 10:56:35;;;;;;;;;;;2.90;99.90;;;;;;5053382;28;19971;-75
2022/01/06 10:59:01;;;;;;;;;;;2.50;99.90;;;;;;5053543;28;19968;-73
2022/01/06 11:01:31;;;;;;;;;;;4.10;99.90;;;;;;5052331;28;19920;-73
2022/01/06 11:03:56;;;;;;;;;;;2.60;99.90;;;;;;5053587;28;19966;-73
2022/01/06 11:06:22;;;;;;;;;;;2.60;99.90;;;;;;5052459;28;19924;-74
2022/01/06 11:08:48;;;;;;;;;;;3.20;99.90;;;;;;5053437;28;19924;-73
2022/01/06 11:11:27;;;;;;;;;;;2.60;99.90;;;;;;5053552;28;19925;-75
2022/01/06 11:13:53;;;;;;;;;;;2.70;99.90;;;;;;5057480;28;19921;-74
2022/01/06 11:16:20;;;;;;;;;;;4.30;99.90;;;;;;5057410;28;20385;-75
2022/01/06 11:18:50;;;;;;;;;;;3.90;99.90;;;;;;5057630;28;19921;-73
2022/01/06 11:21:17;;;;;;;;;;;2.80;99.90;;;;;;5057446;28;19921;-75
2022/01/06 11:23:43;;;;;;;;;;;3.00;99.90;;;;;;5057388;28;20025;-75
2022/01/06 11:26:11;;;;;;;;;;;2.90;99.90;;;;;;5057188;28;19921;-73
2022/01/06 11:28:38;;;;;;;;;;;2.90;99.90;;;;;;5056875;28;20390;-73
2022/01/06 11:31:18;;;;;;;;;;;3.00;99.90;;;;;;5057161;28;19976;-72
2022/01/06 11:33:45;;;;;;;;;;;3.00;99.90;;;;;;5056961;28;19979;-74
2022/01/06 11:36:37;;;;;;;;;;;3.10;99.90;;;;;;5057145;28;19921;-73
2022/01/06 11:39:06;;;;;;;;;;;3.10;99.90;;;;;;5053612;28;19921;-76
2022/01/06 11:41:33;;;;;;;;;;;3.20;99.90;;;;;;5056773;28;19921;-76
2022/01/06 11:44:01;;;;;;;;;;;3.30;99.90;;;;;;5057269;28;19931;-72
2022/01/06 11:46:40;;;;;;;;;;;3.30;99.90;;;;;;5055824;28;19970;-72
2022/01/06 11:49:05;;;;;;;;;;;3.40;99.90;;;;;;5057346;28;20447;-73
2022/01/06 11:51:32;;;;;;;;;;;3.50;99.90;;;;;;5055833;28;20011;-75
2022/01/06 11:54:11;;;;;;;;;;;3.50;99.90;;;;;;5056512;28;19920;-73
2022/01/06 11:56:47;;;;;;;;;;;3.60;99.90;;;;;;5056679;28;20273;-75
2022/01/06 11:59:12;;;;;;;;;;;3.70;99.90;;;;;;5056612;28;19920;-74
2022/01/06 12:01:48;;;;;;;;;;;3.70;99.90;;;;;;5054844;28;20298;-74
2022/01/06 12:04:33;;;;;;;;;;;3.80;99.90;;;;;;5056600;28;19915;-72
2022/01/06 12:07:02;;;;;;;;;;;3.90;99.90;;;;;;5055769;28;20004;-73
2022/01/06 12:09:28;;;;;;;;;;;3.00;99.90;;;;;;5056546;28;19943;-73
2022/01/06 12:12:04;;;;;;;;;;;4.00;99.90;;;;;;5056261;28;20306;-74
2022/01/06 12:14:29;;;;;;;;;;;4.10;99.90;;;;;;5056322;28;19927;-72
2022/01/06 12:17:03;;;;;;;;;;;5.80;99.90;;;;;;5054788;28;19920;-73
2022/01/06 12:19:28;;;;;;;;;;;4.30;99.90;;;;;;5052176;28;20372;-72
2022/01/06 12:21:54;;;;;;;;;;;4.40;99.90;;;;;;5056253;28;19978;-72
2022/01/06 12:24:19;;;;;;;;;;;4.40;99.90;;;;;;5055155;28;19925;-72
2022/01/06 12:26:45;;;;;;;;;;;6.30;99.90;;;;;;5055892;28;19956;-73
2022/01/06 12:29:12;;;;;;;;;;;6.50;99.90;;;;;;5055958;28;20335;-73
2022/01/06 12:31:38;;;;;;;;;;;5.70;99.90;;;;;;5056232;28;19920;-72
2022/01/06 12:34:04;;;;;;;;;;;4.60;99.90;;;;;;5055871;28;19925;-74
2022/01/06 12:36:34;;;;;;;;;;;4.70;99.90;;;;;;5055934;28;20360;-74
2022/01/06 12:39:07;;;;;;;;;;;4.70;99.90;;;;;;5055761;28;20371;-73
2022/01/06 12:41:34;;;;;;;;;;;4.80;99.90;;;;;;5055729;28;19960;-74
2022/01/06 12:44:00;;;;;;;;;;;4.90;99.90;;;;;;5054245;28;19921;-73
2022/01/06 12:46:37;;;;;;;;;;;4.90;99.90;;;;;;5088486;28;19986;-72
2022/01/06 12:49:07;;;;;;;;;;;5.00;99.90;;;;;;5055746;28;19957;-72
2022/01/06 12:51:33;;;;;;;;;;;5.00;99.90;;;;;;5055071;28;19944;-73
2022/01/06 12:54:00;;;;;;;;;;;5.10;99.90;;;;;;5055496;28;19979;-73
2022/01/06 12:56:30;;;;;;;;;;;5.10;99.90;;;;;;5055288;28;19928;-73
2022/01/06 12:58:56;;;;;;;;;;;5.10;99.90;;;;;;5055714;28;19920;-73
2022/01/06 13:01:23;;;;;;;;;;;5.10;99.90;;;;;;5055191;28;19927;-73
2022/01/06 13:03:53;;;;;;;;;;;5.20;99.90;;;;;;5055087;28;20375;-75
2022/01/06 13:06:21;;;;;;;;;;;5.20;99.90;;;;;;5055465;28;19967;-73
2022/01/06 13:08:48;;;;;;;;;;;5.20;99.90;;;;;;5087964;28;20430;-73
2022/01/06 13:11:19;;;;;;;;;;;5.20;99.90;;;;;;5055104;28;20023;-73
2022/01/06 13:13:46;;;;;;;;;;;5.30;99.90;;;;;;5055272;28;19927;-73
2022/01/06 13:16:13;;;;;;;;;;;5.30;99.90;;;;;;5055135;28;19928;-73
2022/01/06 13:18:39;;;;;;;;;;;5.30;99.90;;;;;;5055253;28;19927;-72
2022/01/06 13:21:04;;;;;;;;;;;5.30;99.90;;;;;;5054996;28;20003;-73
2022/01/06 13:26:06;;;;;;;;;;;5.40;99.90;;;;;;5055046;28;19968;-73
2022/01/06 13:28:32;;;;;;;;;;;5.40;99.90;;;;;;5053782;28;19921;-74
2022/01/06 13:30:57;;;;;;;;;;;5.40;99.90;;;;;;5054667;28;20011;-73
2022/01/06 13:33:26;;;;;;;;;;;5.60;99.90;;;;;;5070375;28;20261;-73
2022/01/06 13:35:52;;;;;;;;;;;6.30;99.90;;;;;;5052997;28;19928;-74
2022/01/06 13:38:18;;;;;;;;;;;5.40;99.90;;;;;;5054599;28;19921;-72
2022/01/06 13:40:45;;;;;;;;;;;6.10;99.90;;;;;;5054432;28;20015;-73
2022/01/06 13:43:17;;;;;;;;;;;5.50;99.90;;;;;;5054676;28;19921;-73
2022/01/06 13:45:45;;;;;;;;;;;5.50;99.90;;;;;;5054495;28;19921;-74
2022/01/06 13:48:30;;;;;;;;;;;5.50;99.90;;;;;;5054708;28;19920;-73
2022/01/06 13:51:05;;;;;;;;;;;5.50;99.90;;;;;;5087032;28;19921;-76
2022/01/06 13:53:40;;;;;;;;;;;5.50;99.90;;;;;;5054385;28;19920;-74
2022/01/06 13:56:12;;;;;;;;;;;5.50;99.90;;;;;;5054538;28;20011;-74
2022/01/06 13:58:39;;;;;;;;;;;5.50;99.90;;;;;;5054504;28;19920;-73
2022/01/06 14:01:05;;;;;;;;;;;5.50;99.90;;;;;;5054629;28;19978;-74
2022/01/06 14:03:32;;;;;;;;;;;5.50;99.90;;;;;;5054224;28;20050;-73
2022/01/06 14:05:58;;;;;;;;;;;5.50;99.90;;;;;;5053765;28;19942;-73
2022/01/06 14:08:24;;;;;;;;;;;5.50;99.90;;;;;;5054463;28;19927;-74
2022/01/06 14:10:49;;;;;;;;;;;5.50;99.90;;;;;;5054093;28;20287;-73
2022/01/06 14:13:15;;;;;;;;;;;5.50;99.90;;;;;;5054110;28;19927;-73
2022/01/06 14:15:41;;;;;;;;;;;5.50;99.90;;;;;;5086916;28;19928;-73
2022/01/06 14:18:07;;;;;;;;;;;5.40;99.90;;;;;;5054103;28;19942;-74
2022/01/06 14:20:33;;;;;;;;;;;5.40;99.90;;;;;;5054021;28;19927;-73
2022/01/06 14:22:58;;;;;;;;;;;5.40;99.90;;;;;;5054259;28;20340;-73
2022/01/06 14:25:24;;;;;;;;;;;5.80;99.90;;;;;;5054146;28;19987;-74
2022/01/06 14:27:50;;;;;;;;;;;5.40;99.90;;;;;;5052335;28;19964;-75
2022/01/06 14:30:17;;;;;;;;;;;5.30;99.90;;;;;;5053815;28;19964;-73
2022/01/06 14:32:43;;;;;;;;;;;5.30;99.90;;;;;;5053744;28;20388;-73
2022/01/06 14:35:08;;;;;;;;;;;5.50;99.90;;;;;;5053823;28;19979;-73
2022/01/06 14:37:34;;;;;;;;;;;5.30;99.90;;;;;;5053708;28;19929;-72